createdAt,value
2023-01-17T00:01:07.018Z,2.62
2023-01-17T00:04:28.821Z,2.61
2023-01-17T00:07:49.308Z,2.59
2023-01-17T00:10:50.967Z,2.56
2023-01-17T00:13:52.503Z,2.54
2023-01-17T00:16:54.403Z,2.56
2023-01-17T00:20:15.887Z,2.57
2023-01-17T00:23:46.906Z,2.55
2023-01-17T00:27:06.700Z,2.54
2023-01-17T00:30:10.223Z,2.49
2023-01-17T00:33:12.143Z,2.49
2023-01-17T00:36:13.726Z,2.48
2023-01-17T00:39:15.238Z,2.48
2023-01-17T00:42:16.791Z,2.49
2023-01-17T00:45:36.923Z,2.51
2023-01-17T00:48:57.810Z,2.53
2023-01-17T00:52:17.757Z,2.54
2023-01-17T00:55:38.287Z,2.56
2023-01-17T00:58:58.305Z,2.56
2023-01-17T01:02:18.172Z,2.56
2023-01-17T01:05:38.749Z,2.57
2023-01-17T01:08:58.662Z,2.54
2023-01-17T01:12:18.667Z,2.52
2023-01-17T01:15:38.618Z,2.53
2023-01-17T01:18:58.443Z,2.53
2023-01-17T01:22:18.232Z,2.53
2023-01-17T01:25:38.186Z,2.51
2023-01-17T01:28:58.151Z,2.51
2023-01-17T01:32:18.157Z,2.47
2023-01-17T01:35:19.967Z,2.48
2023-01-17T01:38:24.431Z,2.48
2023-01-17T01:41:26.059Z,2.45
2023-01-17T01:44:48.715Z,2.43
2023-01-17T01:47:54.127Z,2.39
2023-01-17T01:50:55.772Z,2.32
2023-01-17T01:54:05.198Z,2.27
2023-01-17T01:57:09.914Z,2.22
2023-01-17T02:00:25.003Z,2.16
2023-01-17T02:03:31.637Z,2.13
2023-01-17T02:06:43.582Z,2.09
2023-01-17T02:09:45.832Z,2.03
2023-01-17T02:12:48.196Z,2.00
2023-01-17T02:16:01.389Z,1.97
2023-01-17T02:19:40.187Z,1.96
2023-01-17T02:23:19.296Z,1.89
2023-01-17T02:26:34.524Z,1.87
2023-01-17T02:30:20.859Z,1.85
2023-01-17T02:33:32.302Z,1.84
2023-01-17T02:36:38.057Z,1.84
2023-01-17T02:40:26.826Z,1.83
2023-01-17T02:43:28.949Z,1.81
2023-01-17T02:46:30.793Z,1.79
2023-01-17T02:49:32.633Z,1.80
2023-01-17T02:52:55.631Z,1.80
2023-01-17T02:56:16.432Z,1.78
2023-01-17T02:59:17.945Z,1.77
2023-01-17T03:02:38.667Z,1.78
2023-01-17T03:05:47.574Z,1.78
2023-01-17T03:08:51.896Z,1.79
2023-01-17T03:11:54.031Z,1.79
2023-01-17T03:14:56.365Z,1.78
2023-01-17T03:18:03.697Z,1.78
2023-01-17T03:21:05.384Z,1.77
2023-01-17T03:24:07.088Z,1.77
2023-01-17T03:27:08.682Z,1.77
2023-01-17T03:30:10.942Z,1.78
2023-01-17T03:33:12.466Z,1.76
2023-01-17T03:36:14.090Z,1.77
2023-01-17T03:39:15.703Z,1.76
2023-01-17T03:42:17.341Z,1.73
2023-01-17T03:45:19.920Z,1.71
2023-01-17T03:48:21.705Z,1.67
2023-01-17T03:51:23.383Z,1.64
2023-01-17T03:54:24.938Z,1.59
2023-01-17T03:57:26.588Z,1.57
2023-01-17T04:00:28.176Z,1.55
2023-01-17T04:03:29.784Z,1.50
2023-01-17T04:06:31.367Z,1.46
2023-01-17T04:09:34.544Z,1.44
2023-01-17T04:12:36.113Z,1.42
2023-01-17T04:15:37.667Z,1.42
2023-01-17T04:18:39.339Z,1.43
2023-01-17T04:21:41.033Z,1.44
2023-01-17T04:24:42.619Z,1.43
2023-01-17T04:27:44.140Z,1.43
2023-01-17T04:30:45.715Z,1.43
2023-01-17T04:33:47.315Z,1.43
2023-01-17T04:36:48.862Z,1.40
2023-01-17T04:39:50.436Z,1.39
2023-01-17T04:42:52.326Z,1.40
2023-01-17T04:45:57.608Z,1.41
2023-01-17T04:49:00.544Z,1.42
2023-01-17T04:52:02.107Z,1.43
2023-01-17T04:55:03.973Z,1.43
2023-01-17T04:58:05.532Z,1.42
2023-01-17T05:01:08.612Z,1.43
2023-01-17T05:04:10.248Z,1.41
2023-01-17T05:07:11.808Z,1.40
2023-01-17T05:10:13.509Z,1.40
2023-01-17T05:13:15.118Z,1.41
2023-01-17T05:16:19.642Z,1.41
2023-01-17T05:19:21.715Z,1.42
2023-01-17T05:22:23.271Z,1.40
2023-01-17T05:25:26.990Z,1.38
2023-01-17T05:28:28.558Z,1.37
2023-01-17T05:31:30.227Z,1.36
2023-01-17T05:34:32.309Z,1.36
2023-01-17T05:37:33.875Z,1.36
2023-01-17T05:40:35.462Z,1.39
2023-01-17T05:43:37.053Z,1.81
2023-01-17T05:46:38.897Z,2.04
2023-01-17T05:49:41.429Z,2.03
2023-01-17T05:52:50.063Z,2.00
2023-01-17T05:55:51.639Z,1.97
2023-01-17T05:58:53.176Z,1.93
2023-01-17T06:01:54.702Z,1.88
2023-01-17T06:04:56.252Z,1.84
2023-01-17T06:07:58.219Z,1.79
2023-01-17T06:10:59.842Z,1.73
2023-01-17T06:14:01.369Z,1.66
2023-01-17T06:17:03.139Z,1.60
2023-01-17T06:20:07.369Z,1.55
2023-01-17T06:23:14.485Z,1.52
2023-01-17T06:26:16.239Z,1.47
2023-01-17T06:29:17.820Z,1.45
2023-01-17T06:32:19.421Z,1.42
2023-01-17T06:35:22.523Z,1.40
2023-01-17T06:38:24.089Z,1.36
2023-01-17T06:41:26.064Z,1.35
2023-01-17T06:44:27.588Z,1.36
2023-01-17T06:47:29.155Z,1.34
2023-01-17T06:50:31.595Z,1.30
2023-01-17T06:53:33.148Z,1.29
2023-01-17T06:56:34.769Z,1.28
2023-01-17T06:59:36.462Z,1.25
2023-01-17T07:02:38.044Z,1.23
2023-01-17T07:05:41.576Z,1.23
2023-01-17T07:08:43.124Z,1.18
2023-01-17T07:11:45.415Z,1.15
2023-01-17T07:14:46.958Z,1.13
2023-01-17T07:17:48.531Z,1.07
2023-01-17T07:20:50.787Z,1.03
2023-01-17T07:23:52.413Z,0.98
2023-01-17T07:26:53.974Z,0.96
2023-01-17T07:29:55.852Z,0.93
2023-01-17T07:32:57.514Z,0.91
2023-01-17T07:36:02.807Z,0.91
2023-01-17T07:39:06.316Z,0.88
2023-01-17T07:42:08.093Z,0.85
2023-01-17T07:45:10.930Z,0.82
2023-01-17T07:48:13.236Z,0.81
2023-01-17T07:51:14.881Z,0.76
2023-01-17T07:54:16.425Z,0.70
2023-01-17T07:57:17.995Z,0.65
2023-01-17T08:00:19.975Z,0.63
2023-01-17T08:03:21.539Z,0.59
2023-01-17T08:06:24.992Z,0.56
2023-01-17T08:09:26.512Z,0.54
2023-01-17T08:12:29.457Z,0.51
2023-01-17T08:15:31.064Z,0.53
2023-01-17T08:18:32.705Z,0.53
2023-01-17T08:21:34.292Z,0.53
2023-01-17T08:24:35.851Z,0.50
2023-01-17T08:27:37.409Z,0.45
2023-01-17T08:30:39.178Z,0.40
2023-01-17T08:33:40.724Z,0.38
2023-01-17T08:36:47.867Z,0.36
2023-01-17T08:39:49.870Z,0.35
2023-01-17T08:42:59.174Z,0.38
2023-01-17T08:46:01.576Z,0.42
2023-01-17T08:49:03.235Z,0.45
2023-01-17T08:52:05.469Z,0.48
2023-01-17T08:55:10.132Z,0.51
2023-01-17T08:58:11.781Z,0.53
2023-01-17T09:01:13.853Z,0.54
2023-01-17T09:04:15.964Z,0.53
2023-01-17T09:07:19.270Z,0.53
2023-01-17T09:10:20.872Z,0.52
2023-01-17T09:13:22.680Z,0.50
2023-01-17T09:16:24.337Z,0.50
2023-01-17T09:19:26.004Z,0.48
2023-01-17T09:22:27.625Z,0.49
2023-01-17T09:25:29.207Z,0.47
2023-01-17T09:28:31.266Z,0.46
2023-01-17T09:31:32.955Z,0.52
2023-01-17T09:34:34.569Z,0.91
2023-01-17T09:37:37.012Z,1.05
2023-01-17T09:40:47.524Z,1.09
2023-01-17T09:43:56.966Z,1.17
2023-01-17T09:47:12.724Z,1.22
2023-01-17T09:50:20.156Z,1.29
2023-01-17T09:53:22.219Z,1.36
2023-01-17T09:56:42.752Z,1.43
2023-01-17T10:00:06.089Z,1.47
2023-01-17T10:03:35.537Z,1.55
2023-01-17T10:06:47.131Z,1.62
2023-01-17T10:10:02.491Z,1.65
2023-01-17T10:13:25.972Z,1.68
2023-01-17T10:16:55.181Z,1.71
2023-01-17T10:19:59.530Z,1.74
2023-01-17T10:23:29.118Z,1.77
2023-01-17T10:26:33.917Z,1.76
2023-01-17T10:29:36.714Z,1.75
2023-01-17T10:32:45.043Z,1.76
2023-01-17T10:35:54.419Z,1.74
2023-01-17T10:39:13.850Z,1.72
2023-01-17T10:42:57.332Z,1.68
2023-01-17T10:45:58.961Z,1.65
2023-01-17T10:49:01.366Z,1.64
2023-01-17T10:52:27.871Z,1.66
2023-01-17T10:55:35.558Z,1.66
2023-01-17T10:58:37.139Z,1.68
2023-01-17T11:01:39.354Z,1.71
2023-01-17T11:04:42.462Z,1.77
2023-01-17T11:08:08.578Z,1.88
2023-01-17T11:11:10.227Z,2.19
2023-01-17T11:14:25.372Z,2.27
2023-01-17T11:17:29.046Z,2.27
2023-01-17T11:20:37.015Z,2.30
2023-01-17T11:23:45.110Z,2.29
2023-01-17T11:26:49.490Z,2.30
2023-01-17T11:30:16.049Z,2.29
2023-01-17T11:33:45.447Z,2.32
2023-01-17T11:36:47.113Z,2.34
2023-01-17T11:39:48.865Z,2.35
2023-01-17T11:43:02.543Z,2.37
2023-01-17T11:46:18.030Z,2.37
2023-01-17T11:49:27.487Z,2.34
2023-01-17T11:52:36.590Z,2.33
2023-01-17T11:55:38.352Z,2.34
2023-01-17T11:58:43.670Z,2.32
2023-01-17T12:01:58.160Z,2.45
2023-01-17T12:05:24.331Z,2.91
2023-01-17T12:08:25.975Z,2.99
2023-01-17T12:12:13.747Z,2.94
2023-01-17T12:15:35.533Z,2.79
2023-01-17T12:18:50.566Z,2.66
2023-01-17T12:22:01.300Z,2.58
2023-01-17T12:25:25.784Z,2.49
2023-01-17T12:28:46.352Z,2.45
2023-01-17T12:31:57.971Z,2.46
2023-01-17T12:35:12.924Z,2.45
2023-01-17T12:38:32.569Z,2.41
2023-01-17T12:42:18.596Z,2.39
2023-01-17T12:45:32.532Z,2.35
2023-01-17T12:48:37.828Z,2.32
2023-01-17T12:51:43.487Z,2.30
2023-01-17T12:54:50.519Z,2.28
2023-01-17T12:57:59.513Z,2.27
2023-01-17T13:01:43.258Z,2.24
2023-01-17T13:04:59.756Z,2.19
2023-01-17T13:08:04.227Z,2.16
2023-01-17T13:11:20.272Z,2.12
2023-01-17T13:14:21.971Z,2.07
2023-01-17T13:17:39.608Z,2.08
2023-01-17T13:21:08.403Z,2.06
2023-01-17T13:24:19.335Z,2.07
2023-01-17T13:27:39.783Z,2.07
2023-01-17T13:30:56.649Z,2.05
2023-01-17T13:34:40.282Z,2.03
2023-01-17T13:37:47.750Z,1.99
2023-01-17T13:40:52.832Z,1.97
2023-01-17T13:44:13.170Z,1.95
2023-01-17T13:47:17.743Z,1.91
2023-01-17T13:50:31.116Z,1.88
2023-01-17T13:53:35.733Z,1.89
2023-01-17T13:56:37.509Z,1.88
2023-01-17T13:59:39.159Z,1.87
2023-01-17T14:02:42.189Z,1.85
2023-01-17T14:05:49.313Z,1.85
2023-01-17T14:08:50.943Z,1.84
2023-01-17T14:11:54.937Z,1.84
2023-01-17T14:14:58.825Z,1.84
2023-01-17T14:18:04.829Z,1.84
2023-01-17T14:21:19.112Z,1.84
2023-01-17T14:24:21.315Z,1.82
2023-01-17T14:27:25.308Z,1.78
2023-01-17T14:30:34.351Z,1.75
2023-01-17T14:33:39.865Z,1.72
2023-01-17T14:36:41.473Z,1.69
2023-01-17T14:39:47.867Z,1.86
2023-01-17T14:42:59.517Z,2.12
2023-01-17T14:46:06.901Z,2.11
2023-01-17T14:49:24.245Z,2.04
2023-01-17T14:52:25.991Z,1.97
2023-01-17T14:55:27.658Z,1.91
2023-01-17T14:58:39.536Z,1.85
2023-01-17T15:01:42.562Z,1.81
2023-01-17T15:04:45.484Z,1.75
2023-01-17T15:07:53.137Z,1.70
2023-01-17T15:11:05.421Z,1.64
2023-01-17T15:14:07.833Z,1.58
2023-01-17T15:17:21.707Z,1.69
2023-01-17T15:20:23.804Z,1.69
2023-01-17T15:23:31.669Z,1.98
2023-01-17T15:26:35.422Z,2.06
2023-01-17T15:29:37.055Z,2.01
2023-01-17T15:32:38.819Z,1.93
2023-01-17T15:35:40.414Z,1.86
2023-01-17T15:38:52.886Z,1.80
2023-01-17T15:41:56.768Z,1.74
2023-01-17T15:45:02.219Z,1.70
2023-01-17T15:48:43.412Z,1.66
2023-01-17T15:51:56.737Z,1.60
2023-01-17T15:55:10.831Z,1.56
2023-01-17T15:58:27.833Z,1.50
2023-01-17T16:01:29.579Z,1.45
2023-01-17T16:04:37.134Z,1.40
2023-01-17T16:07:38.719Z,1.37
2023-01-17T16:10:40.290Z,1.36
2023-01-17T16:13:43.478Z,1.32
2023-01-17T16:16:54.313Z,1.31
2023-01-17T16:19:56.300Z,1.28
2023-01-17T16:22:59.641Z,1.27
2023-01-17T16:26:01.921Z,1.26
2023-01-17T16:29:03.594Z,1.22
2023-01-17T16:32:08.763Z,1.20
2023-01-17T16:35:22.950Z,1.18
2023-01-17T16:38:24.846Z,1.19
2023-01-17T16:41:26.436Z,1.17
2023-01-17T16:44:28.700Z,1.14
2023-01-17T16:47:30.426Z,1.15
2023-01-17T16:50:32.032Z,1.15
2023-01-17T16:53:33.974Z,1.15
2023-01-17T16:56:35.556Z,1.11
2023-01-17T16:59:50.098Z,1.05
2023-01-17T17:02:53.364Z,1.00
2023-01-17T17:05:57.584Z,0.95
2023-01-17T17:08:59.591Z,0.90
2023-01-17T17:12:01.152Z,0.87
2023-01-17T17:15:02.863Z,0.83
2023-01-17T17:18:04.478Z,0.85
2023-01-17T17:21:07.645Z,0.83
2023-01-17T17:24:14.839Z,0.79
2023-01-17T17:27:16.432Z,0.76
2023-01-17T17:30:18.464Z,0.75
2023-01-17T17:33:20.073Z,0.72
2023-01-17T17:36:21.688Z,0.68
2023-01-17T17:39:23.257Z,0.66
2023-01-17T17:42:24.987Z,0.65
2023-01-17T17:45:26.573Z,0.64
2023-01-17T17:48:28.175Z,0.62
2023-01-17T17:51:35.270Z,0.62
2023-01-17T17:54:37.156Z,0.60
2023-01-17T17:57:38.850Z,0.55
2023-01-17T18:00:40.407Z,0.51
2023-01-17T18:03:42.260Z,0.50
2023-01-17T18:06:44.704Z,0.47
2023-01-17T18:09:46.516Z,0.47
2023-01-17T18:12:49.281Z,0.44
2023-01-17T18:16:05.640Z,0.45
2023-01-17T18:19:11.884Z,0.42
2023-01-17T18:22:13.433Z,0.41
2023-01-17T18:25:15.593Z,0.42
2023-01-17T18:28:17.101Z,0.42
2023-01-17T18:31:18.748Z,0.39
2023-01-17T18:34:27.077Z,0.37
2023-01-17T18:37:28.665Z,0.35
2023-01-17T18:40:30.226Z,0.33
2023-01-17T18:43:32.080Z,0.30
2023-01-17T18:46:34.678Z,0.25
2023-01-17T18:49:36.625Z,0.22
2023-01-17T18:52:38.725Z,0.20
2023-01-17T18:55:40.288Z,0.18
2023-01-17T18:58:43.675Z,0.16
2023-01-17T19:01:45.570Z,0.12
2023-01-17T19:04:47.201Z,0.08
2023-01-17T19:07:48.754Z,0.05
2023-01-17T19:10:50.281Z,0.00
2023-01-17T19:13:53.387Z,-0.02
2023-01-17T19:16:56.155Z,-0.02
2023-01-17T19:19:57.713Z,-0.02
2023-01-17T19:22:59.622Z,-0.03
2023-01-17T19:26:02.125Z,-0.05
2023-01-17T19:29:04.962Z,-0.09
2023-01-17T19:32:07.408Z,-0.13
2023-01-17T19:35:11.219Z,-0.18
2023-01-17T19:38:12.866Z,-0.21
2023-01-17T19:41:23.900Z,-0.25
2023-01-17T19:44:25.475Z,-0.28
2023-01-17T19:47:27.040Z,-0.30
2023-01-17T19:50:28.587Z,-0.35
2023-01-17T19:53:30.169Z,-0.37
2023-01-17T19:56:31.784Z,-0.40
2023-01-17T19:59:33.345Z,-0.39
2023-01-17T20:02:37.410Z,-0.37
2023-01-17T20:05:38.968Z,-0.39
2023-01-17T20:08:40.736Z,-0.41
2023-01-17T20:11:42.807Z,-0.42
2023-01-17T20:14:44.555Z,-0.41
2023-01-17T20:17:46.117Z,-0.43
2023-01-17T20:20:56.931Z,-0.45
2023-01-17T20:24:00.614Z,-0.45
2023-01-17T20:27:02.256Z,-0.39
2023-01-17T20:30:19.315Z,-0.36
2023-01-17T20:33:23.336Z,-0.34
2023-01-17T20:36:26.923Z,-0.30
2023-01-17T20:39:28.481Z,-0.27
2023-01-17T20:42:30.094Z,-0.26
2023-01-17T20:45:31.698Z,-0.26
2023-01-17T20:48:33.572Z,-0.25
2023-01-17T20:51:38.354Z,-0.27
2023-01-17T20:54:39.964Z,-0.30
2023-01-17T20:57:41.691Z,-0.31
2023-01-17T21:00:43.274Z,-0.31
2023-01-17T21:03:45.593Z,-0.32
2023-01-17T21:06:47.546Z,-0.34
2023-01-17T21:09:49.289Z,-0.36
2023-01-17T21:12:50.827Z,-0.36
2023-01-17T21:15:53.253Z,-0.40
2023-01-17T21:18:54.945Z,-0.45
2023-01-17T21:21:57.358Z,-0.48
2023-01-17T21:24:58.875Z,-0.48
2023-01-17T21:28:00.499Z,-0.47
2023-01-17T21:31:07.200Z,-0.51
2023-01-17T21:34:11.021Z,-0.52
2023-01-17T21:37:12.623Z,-0.55
2023-01-17T21:40:14.649Z,-0.56
2023-01-17T21:43:16.212Z,-0.59
2023-01-17T21:46:18.280Z,-0.57
2023-01-17T21:49:19.892Z,-0.58
2023-01-17T21:52:21.490Z,-0.61
2023-01-17T21:55:41.499Z,-0.61
2023-01-17T21:58:45.732Z,-0.62
2023-01-17T22:01:47.477Z,-0.63
2023-01-17T22:04:49.267Z,-0.64
2023-01-17T22:08:21.719Z,-0.66
2023-01-17T22:11:25.764Z,-0.69
2023-01-17T22:14:27.323Z,-0.67
2023-01-17T22:17:29.929Z,-0.66
2023-01-17T22:20:31.506Z,-0.61
2023-01-17T22:23:33.832Z,-0.51
2023-01-17T22:26:35.467Z,-0.50
2023-01-17T22:29:37.739Z,-0.48
2023-01-17T22:32:39.761Z,-0.47
2023-01-17T22:35:41.362Z,-0.49
2023-01-17T22:38:43.810Z,-0.53
2023-01-17T22:41:45.340Z,-0.55
2023-01-17T22:44:47.854Z,-0.61
2023-01-17T22:47:49.409Z,-0.67
2023-01-17T22:50:50.977Z,-0.72
2023-01-17T22:53:55.114Z,-0.73
2023-01-17T22:56:56.759Z,-0.73
2023-01-17T22:59:58.317Z,-0.78
2023-01-17T23:03:00.381Z,-0.81
2023-01-17T23:06:07.971Z,-0.82
2023-01-17T23:09:12.871Z,-0.85
2023-01-17T23:12:14.480Z,-0.88
2023-01-17T23:15:34.500Z,-0.88
2023-01-17T23:18:54.286Z,-0.92
2023-01-17T23:22:15.849Z,-0.99
2023-01-17T23:25:17.601Z,-1.02
2023-01-17T23:28:20.943Z,-1.04
2023-01-17T23:31:23.463Z,-1.03
2023-01-17T23:34:25.093Z,-1.04
2023-01-17T23:37:47.514Z,-1.07
2023-01-17T23:41:08.550Z,-1.11
2023-01-17T23:44:10.170Z,-1.14
2023-01-17T23:47:11.836Z,-1.15
2023-01-17T23:50:13.379Z,-1.19
2023-01-17T23:53:23.672Z,-1.21
2023-01-17T23:56:25.258Z,-1.23
2023-01-17T23:59:26.801Z,-1.23
